Ecospirit — SVA6084 — position and weather

sailwx.info

Track history (hours):
 
Tides and Currents Weather Stations Pressure Air Temp Water Temp Dewpoint Dewpoint Depression Visibility Wind Speed Wind Dir Waves Ship Positions

Ecospirit

Last reported at 2017-Oct-19 14:30 UTC. Time now 2017-Oct-20 07:21 UTC.
Position N 37°57' E 023°37'.

Length 69 m; draft 1 m.

Type: Tanker. MMSI: 239864200.

Date/timePositionNaut miles runAvg speedWind from/ knotsBaromVisibWave heightAir tempDewpointWater temp
2017-Oct-19 14:30N 37°57' E 023°37'4 7.5
2017-Oct-19 14:00N 37°58' E 023°33'3 6.9
2017-Oct-19 13:30N 38°02' E 023°35'0 0.0
2017-Oct-19 13:00N 38°02' E 023°35'0 0.0
2017-Oct-19 12:30N 38°02' E 023°35'0 0.0
2017-Oct-19 12:00N 38°02' E 023°35'0 0.0
2017-Oct-19 11:30N 38°02' E 023°35'0 0.0
2017-Oct-19 11:00N 38°02' E 023°35'0 0.0
2017-Oct-19 10:30N 38°02' E 023°35'0 0.0
2017-Oct-19 10:00N 38°02' E 023°35'0 0.0
2017-Oct-19 09:30N 38°02' E 023°35'2 3.6
2017-Oct-19 09:00N 38°01' E 023°32'1 1.4
2017-Oct-19 08:30N 38°02' E 023°32'0 0.0
2017-Oct-19 08:00N 38°02' E 023°32'0 0.0
2017-Oct-19 07:30N 38°02' E 023°32'0 0.0
2017-Oct-19 07:00N 38°02' E 023°32'0 0.0
2017-Oct-19 06:30N 38°02' E 023°32'2 4.6
2017-Oct-19 06:00N 37°60' E 023°33'4 7.8
2017-Oct-19 05:30N 37°57' E 023°36'1 0.0
2017-Oct-18 15:51N 37°57' E 023°37'3 8.1
2017-Oct-18 15:31N 37°54' E 023°35'3 5.2
2017-Oct-18 15:01N 37°52' E 023°33'0 0.0
2017-Oct-18 14:00N 37°52' E 023°33'3 6.3
2017-Oct-18 13:30N 37°55' E 023°34'4 7.4
2017-Oct-18 13:00N 37°59' E 023°33'2 4.9
2017-Oct-18 12:30N 38°01' E 023°32'0 0.0
2017-Oct-18 12:01N 38°01' E 023°32'0 0.0
2017-Oct-18 11:30N 38°01' E 023°32'0 0.1
2017-Oct-18 11:00N 38°01' E 023°32'0 0.5
2017-Oct-18 10:31N 38°01' E 023°32'0 0.0
2017-Oct-18 10:01N 38°01' E 023°32'0 0.0
2017-Oct-18 09:31N 38°01' E 023°32'0 0.0
2017-Oct-18 09:00N 38°01' E 023°32'0 0.0
2017-Oct-18 08:31N 38°01' E 023°32'0 0.0
2017-Oct-18 08:00N 38°01' E 023°32'0 0.0
2017-Oct-18 07:30N 38°01' E 023°32'1 1.5
2017-Oct-18 07:00N 38°01' E 023°32'0 0.0
2017-Oct-18 06:30N 38°01' E 023°32'0 0.0
2017-Oct-18 06:00N 38°01' E 023°32'0 0.4
2017-Oct-18 05:31N 38°01' E 023°32'4 8.1
2017-Oct-18 05:01N 37°57' E 023°34'2 0.1
2017-Oct-17 12:26N 37°57' E 023°37'0 0.0
2017-Oct-17 12:00N 37°57' E 023°37'0 0.0
2017-Oct-17 11:30N 37°57' E 023°37'0 0.0
2017-Oct-17 10:55N 37°57' E 023°37'1 1.4
2017-Oct-17 10:30N 37°56' E 023°37'4 9.1
2017-Oct-17 10:01N 37°53' E 023°33'1 1.3
2017-Oct-17 09:29N 37°52' E 023°33'0 0.0
2017-Oct-17 09:00N 37°52' E 023°33'0 0.0
2017-Oct-17 08:30N 37°52' E 023°33'0 0.0
2017-Oct-17 07:58N 37°52' E 023°33'0 0.0
2017-Oct-17 07:31N 37°52' E 023°33'0 0.0
2017-Oct-17 07:00N 37°52' E 023°33'0 0.1
2017-Oct-17 06:31N 37°52' E 023°33'2 3.0
2017-Oct-17 06:00N 37°53' E 023°34'4 7.8
2017-Oct-17 05:30N 37°57' E 023°37'0 0.0
2017-Oct-16 11:54N 37°57' E 023°37'0 0.4
2017-Oct-16 11:30N 37°57' E 023°37'0 0.0
2017-Oct-16 11:01N 37°57' E 023°37'0 0.0
2017-Oct-16 10:31N 37°57' E 023°37'3 6.5
2017-Oct-16 10:00N 37°58' E 023°33'4 7.1
2017-Oct-16 09:31N 38°01' E 023°32'0 0.0
2017-Oct-16 09:01N 38°01' E 023°32'0 0.0
2017-Oct-16 08:30N 38°01' E 023°32'0 0.0
2017-Oct-16 07:59N 38°01' E 023°32'0 0.0
2017-Oct-16 07:30N 38°01' E 023°32'0 0.0
2017-Oct-16 07:00N 38°01' E 023°32'0 0.1
2017-Oct-16 06:30N 38°01' E 023°32'2 4.6
2017-Oct-16 06:01N 37°59' E 023°33'4 7.8
2017-Oct-16 05:31N 37°57' E 023°37'0 0.0
2017-Oct-14 16:03N 37°57' E 023°37'0 2.0
2017-Oct-14 16:00N 37°57' E 023°37'1 1.4
2017-Oct-14 15:31N 37°56' E 023°37'0 0.0
2017-Oct-14 15:00N 37°56' E 023°37'0 0.0
2017-Oct-14 14:31N 37°56' E 023°37'0 0.0
2017-Oct-14 14:00N 37°56' E 023°37'0 0.0
2017-Oct-14 13:30N 37°56' E 023°37'0 0.0
2017-Oct-14 13:00N 37°56' E 023°37'0 0.0
2017-Oct-14 12:30N 37°56' E 023°37'0 0.0
2017-Oct-14 12:00N 37°56' E 023°37'0 0.0
2017-Oct-14 11:30N 37°56' E 023°37'0 0.0
2017-Oct-14 11:00N 37°56' E 023°37'1 0.0
2017-Oct-13 13:38N 37°57' E 023°37'1 5.7
2017-Oct-13 13:31N 37°57' E 023°36'2 4.6
2017-Oct-13 13:00N 37°57' E 023°33'0 0.0
2017-Oct-13 12:31N 37°57' E 023°33'0 0.0
2017-Oct-13 12:00N 37°57' E 023°33'0 0.0
2017-Oct-13 11:30N 37°57' E 023°33'0 0.0
2017-Oct-13 11:00N 37°57' E 023°33'0 0.0
2017-Oct-13 10:30N 37°57' E 023°33'0 0.0
2017-Oct-13 10:00N 37°57' E 023°33'0 0.0
2017-Oct-13 09:30N 37°57' E 023°33'0 0.0
2017-Oct-13 09:00N 37°57' E 023°33'0 0.0
2017-Oct-13 08:30N 37°57' E 023°33'0 0.0
2017-Oct-13 08:00N 37°57' E 023°33'0 0.0
2017-Oct-13 07:30N 37°57' E 023°33'0 0.0
2017-Oct-13 07:00N 37°57' E 023°33'0 0.0
2017-Oct-13 06:30N 37°57' E 023°33'0 1.0
2017-Oct-13 06:00N 37°57' E 023°34'3 0.2
2017-Oct-12 14:50N 37°57' E 023°37'0 0.5
2017-Oct-12 14:30N 37°57' E 023°37'0 0.0
2017-Oct-12 14:00N 37°57' E 023°37'0 0.0
2017-Oct-12 13:30N 37°57' E 023°37'0 0.0
2017-Oct-12 13:00N 37°57' E 023°37'0 0.0
2017-Oct-12 12:30N 37°57' E 023°37'0 0.0
2017-Oct-12 12:00N 37°57' E 023°37'0 0.0
2017-Oct-12 11:30N 37°57' E 023°37'1 1.7
2017-Oct-12 11:00N 37°56' E 023°36'5 9.6
2017-Oct-12 10:30N 37°53' E 023°32'1 2.0
2017-Oct-12 10:00N 37°53' E 023°30'0 0.1
2017-Oct-12 09:30N 37°53' E 023°31'0 0.0
2017-Oct-12 09:00N 37°53' E 023°30'0 0.7
2017-Oct-12 08:30N 37°53' E 023°31'5 9.7
2017-Oct-12 08:00N 37°56' E 023°36'1 2.9
2017-Oct-12 07:30N 37°57' E 023°37'0 0.0
2017-Oct-12 07:00N 37°57' E 023°37'0 0.0
2017-Oct-12 06:30N 37°57' E 023°37'0 0.0
2017-Oct-12 06:00N 37°57' E 023°37'0 0.0
2017-Oct-10 12:27N 37°57' E 023°37'0 0.0
2017-Oct-10 12:00N 37°57' E 023°37'0 0.0
2017-Oct-10 11:30N 37°57' E 023°37'0 0.0
2017-Oct-10 11:01N 37°57' E 023°37'0 0.0
2017-Oct-10 10:30N 37°57' E 023°37'0 0.0
2017-Oct-10 10:00N 37°57' E 023°37'0 0.0
2017-Oct-10 09:30N 37°57' E 023°37'0 0.0
2017-Oct-10 09:00N 37°57' E 023°37'  
Track history (hours):
 
Tides and Currents Weather Stations Pressure Air Temp Water Temp Dewpoint Dewpoint Depression Visibility Wind Speed Wind Dir Waves Ship Positions

Ecospirit

Last reported at 2017-Oct-19 14:30 UTC. Time now 2017-Oct-20 07:21 UTC.
Position N 37°57' E 023°37'.

Length 69 m; draft 1 m.

Type: Tanker. MMSI: 239864200.

Date/timePositionNaut miles runAvg speedWind from/ knotsBaromVisibWave heightAir tempDewpointWater temp
2017-Oct-19 14:30N 37°57' E 023°37'4 7.5
2017-Oct-19 14:00N 37°58' E 023°33'3 6.9
2017-Oct-19 13:30N 38°02' E 023°35'0 0.0
2017-Oct-19 13:00N 38°02' E 023°35'0 0.0
2017-Oct-19 12:30N 38°02' E 023°35'0 0.0
2017-Oct-19 12:00N 38°02' E 023°35'0 0.0
2017-Oct-19 11:30N 38°02' E 023°35'0 0.0
2017-Oct-19 11:00N 38°02' E 023°35'0 0.0
2017-Oct-19 10:30N 38°02' E 023°35'0 0.0
2017-Oct-19 10:00N 38°02' E 023°35'0 0.0
2017-Oct-19 09:30N 38°02' E 023°35'2 3.6
2017-Oct-19 09:00N 38°01' E 023°32'1 1.4
2017-Oct-19 08:30N 38°02' E 023°32'0 0.0
2017-Oct-19 08:00N 38°02' E 023°32'0 0.0
2017-Oct-19 07:30N 38°02' E 023°32'0 0.0
2017-Oct-19 07:00N 38°02' E 023°32'0 0.0
2017-Oct-19 06:30N 38°02' E 023°32'2 4.6
2017-Oct-19 06:00N 37°60' E 023°33'4 7.8
2017-Oct-19 05:30N 37°57' E 023°36'1 0.0
2017-Oct-18 15:51N 37°57' E 023°37'3 8.1
2017-Oct-18 15:31N 37°54' E 023°35'3 5.2
2017-Oct-18 15:01N 37°52' E 023°33'0 0.0
2017-Oct-18 14:00N 37°52' E 023°33'3 6.3
2017-Oct-18 13:30N 37°55' E 023°34'4 7.4
2017-Oct-18 13:00N 37°59' E 023°33'2 4.9
2017-Oct-18 12:30N 38°01' E 023°32'0 0.0
2017-Oct-18 12:01N 38°01' E 023°32'0 0.0
2017-Oct-18 11:30N 38°01' E 023°32'0 0.1
2017-Oct-18 11:00N 38°01' E 023°32'0 0.5
2017-Oct-18 10:31N 38°01' E 023°32'0 0.0
2017-Oct-18 10:01N 38°01' E 023°32'0 0.0
2017-Oct-18 09:31N 38°01' E 023°32'0 0.0
2017-Oct-18 09:00N 38°01' E 023°32'0 0.0
2017-Oct-18 08:31N 38°01' E 023°32'0 0.0
2017-Oct-18 08:00N 38°01' E 023°32'0 0.0
2017-Oct-18 07:30N 38°01' E 023°32'1 1.5
2017-Oct-18 07:00N 38°01' E 023°32'0 0.0
2017-Oct-18 06:30N 38°01' E 023°32'0 0.0
2017-Oct-18 06:00N 38°01' E 023°32'0 0.4
2017-Oct-18 05:31N 38°01' E 023°32'4 8.1
2017-Oct-18 05:01N 37°57' E 023°34'2 0.1
2017-Oct-17 12:26N 37°57' E 023°37'0 0.0
2017-Oct-17 12:00N 37°57' E 023°37'0 0.0
2017-Oct-17 11:30N 37°57' E 023°37'0 0.0
2017-Oct-17 10:55N 37°57' E 023°37'1 1.4
2017-Oct-17 10:30N 37°56' E 023°37'4 9.1
2017-Oct-17 10:01N 37°53' E 023°33'1 1.3
2017-Oct-17 09:29N 37°52' E 023°33'0 0.0
2017-Oct-17 09:00N 37°52' E 023°33'0 0.0
2017-Oct-17 08:30N 37°52' E 023°33'0 0.0
2017-Oct-17 07:58N 37°52' E 023°33'0 0.0
2017-Oct-17 07:31N 37°52' E 023°33'0 0.0
2017-Oct-17 07:00N 37°52' E 023°33'0 0.1
2017-Oct-17 06:31N 37°52' E 023°33'2 3.0
2017-Oct-17 06:00N 37°53' E 023°34'4 7.8
2017-Oct-17 05:30N 37°57' E 023°37'0 0.0
2017-Oct-16 11:54N 37°57' E 023°37'0 0.4
2017-Oct-16 11:30N 37°57' E 023°37'0 0.0
2017-Oct-16 11:01N 37°57' E 023°37'0 0.0
2017-Oct-16 10:31N 37°57' E 023°37'3 6.5
2017-Oct-16 10:00N 37°58' E 023°33'4 7.1
2017-Oct-16 09:31N 38°01' E 023°32'0 0.0
2017-Oct-16 09:01N 38°01' E 023°32'0 0.0
2017-Oct-16 08:30N 38°01' E 023°32'0 0.0
2017-Oct-16 07:59N 38°01' E 023°32'0 0.0
2017-Oct-16 07:30N 38°01' E 023°32'0 0.0
2017-Oct-16 07:00N 38°01' E 023°32'0 0.1
2017-Oct-16 06:30N 38°01' E 023°32'2 4.6
2017-Oct-16 06:01N 37°59' E 023°33'4 7.8
2017-Oct-16 05:31N 37°57' E 023°37'0 0.0
2017-Oct-14 16:03N 37°57' E 023°37'0 2.0
2017-Oct-14 16:00N 37°57' E 023°37'1 1.4
2017-Oct-14 15:31N 37°56' E 023°37'0 0.0
2017-Oct-14 15:00N 37°56' E 023°37'0 0.0
2017-Oct-14 14:31N 37°56' E 023°37'0 0.0
2017-Oct-14 14:00N 37°56' E 023°37'0 0.0
2017-Oct-14 13:30N 37°56' E 023°37'0 0.0
2017-Oct-14 13:00N 37°56' E 023°37'0 0.0
2017-Oct-14 12:30N 37°56' E 023°37'0 0.0
2017-Oct-14 12:00N 37°56' E 023°37'0 0.0
2017-Oct-14 11:30N 37°56' E 023°37'0 0.0
2017-Oct-14 11:00N 37°56' E 023°37'1 0.0
2017-Oct-13 13:38N 37°57' E 023°37'1 5.7
2017-Oct-13 13:31N 37°57' E 023°36'2 4.6
2017-Oct-13 13:00N 37°57' E 023°33'0 0.0
2017-Oct-13 12:31N 37°57' E 023°33'0 0.0
2017-Oct-13 12:00N 37°57' E 023°33'0 0.0
2017-Oct-13 11:30N 37°57' E 023°33'0 0.0
2017-Oct-13 11:00N 37°57' E 023°33'0 0.0
2017-Oct-13 10:30N 37°57' E 023°33'0 0.0
2017-Oct-13 10:00N 37°57' E 023°33'0 0.0
2017-Oct-13 09:30N 37°57' E 023°33'0 0.0
2017-Oct-13 09:00N 37°57' E 023°33'0 0.0
2017-Oct-13 08:30N 37°57' E 023°33'0 0.0
2017-Oct-13 08:00N 37°57' E 023°33'0 0.0
2017-Oct-13 07:30N 37°57' E 023°33'0 0.0
2017-Oct-13 07:00N 37°57' E 023°33'0 0.0
2017-Oct-13 06:30N 37°57' E 023°33'0 1.0
2017-Oct-13 06:00N 37°57' E 023°34'3 0.2
2017-Oct-12 14:50N 37°57' E 023°37'0 0.5
2017-Oct-12 14:30N 37°57' E 023°37'0 0.0
2017-Oct-12 14:00N 37°57' E 023°37'0 0.0
2017-Oct-12 13:30N 37°57' E 023°37'0 0.0
2017-Oct-12 13:00N 37°57' E 023°37'0 0.0
2017-Oct-12 12:30N 37°57' E 023°37'0 0.0
2017-Oct-12 12:00N 37°57' E 023°37'0 0.0
2017-Oct-12 11:30N 37°57' E 023°37'1 1.7
2017-Oct-12 11:00N 37°56' E 023°36'5 9.6
2017-Oct-12 10:30N 37°53' E 023°32'1 2.0
2017-Oct-12 10:00N 37°53' E 023°30'0 0.1
2017-Oct-12 09:30N 37°53' E 023°31'0 0.0
2017-Oct-12 09:00N 37°53' E 023°30'0 0.7
2017-Oct-12 08:30N 37°53' E 023°31'5 9.7
2017-Oct-12 08:00N 37°56' E 023°36'1 2.9
2017-Oct-12 07:30N 37°57' E 023°37'0 0.0
2017-Oct-12 07:00N 37°57' E 023°37'0 0.0
2017-Oct-12 06:30N 37°57' E 023°37'0 0.0
2017-Oct-12 06:00N 37°57' E 023°37'0 0.0
2017-Oct-10 12:27N 37°57' E 023°37'0 0.0
2017-Oct-10 12:00N 37°57' E 023°37'0 0.0
2017-Oct-10 11:30N 37°57' E 023°37'0 0.0
2017-Oct-10 11:01N 37°57' E 023°37'0 0.0
2017-Oct-10 10:30N 37°57' E 023°37'0 0.0
2017-Oct-10 10:00N 37°57' E 023°37'0 0.0
2017-Oct-10 09:30N 37°57' E 023°37'0 0.0
2017-Oct-10 09:00N 37°57' E 023°37'  

Dump ship's entire track history